sensor_id;sensor_type;location;lat;lon;timestamp;P1;durP1;ratioP1;P2;durP2;ratioP2
42094;SDS011;27753;55.724;37.612;2022-09-12T00:01:24;14.73;;;8.75;;
42094;SDS011;27753;55.724;37.612;2022-09-12T00:03:54;15.57;;;9.00;;
42094;SDS011;27753;55.724;37.612;2022-09-12T00:06:24;14.98;;;10.35;;
42094;SDS011;27753;55.724;37.612;2022-09-12T00:08:55;11.45;;;9.30;;
42094;SDS011;27753;55.724;37.612;2022-09-12T00:11:26;12.23;;;9.00;;
42094;SDS011;27753;55.724;37.612;2022-09-12T00:13:59;14.30;;;9.40;;
42094;SDS011;27753;55.724;37.612;2022-09-12T00:16:27;12.38;;;9.80;;
42094;SDS011;27753;55.724;37.612;2022-09-12T00:18:54;16.23;;;9.75;;
42094;SDS011;27753;55.724;37.612;2022-09-12T00:21:22;15.27;;;9.52;;
42094;SDS011;27753;55.724;37.612;2022-09-12T00:23:48;15.00;;;9.50;;
42094;SDS011;27753;55.724;37.612;2022-09-12T00:26:16;14.50;;;10.13;;
42094;SDS011;27753;55.724;37.612;2022-09-12T00:31:11;14.23;;;10.30;;
42094;SDS011;27753;55.724;37.612;2022-09-12T00:33:39;19.67;;;9.85;;
42094;SDS011;27753;55.724;37.612;2022-09-12T00:36:08;13.63;;;9.20;;
42094;SDS011;27753;55.724;37.612;2022-09-12T00:38:35;14.80;;;10.00;;
42094;SDS011;27753;55.724;37.612;2022-09-12T00:41:05;15.82;;;10.73;;
42094;SDS011;27753;55.724;37.612;2022-09-12T00:43:39;15.65;;;9.45;;
42094;SDS011;27753;55.724;37.612;2022-09-12T00:48:59;14.27;;;10.73;;
42094;SDS011;27753;55.724;37.612;2022-09-12T00:51:29;12.02;;;9.73;;
42094;SDS011;27753;55.724;37.612;2022-09-12T00:53:57;21.45;;;11.05;;
42094;SDS011;27753;55.724;37.612;2022-09-12T00:56:27;16.60;;;10.82;;
42094;SDS011;27753;55.724;37.612;2022-09-12T00:59:04;14.95;;;11.35;;
42094;SDS011;27753;55.724;37.612;2022-09-12T01:01:35;13.35;;;10.52;;
42094;SDS011;27753;55.724;37.612;2022-09-12T01:04:01;18.87;;;11.17;;
42094;SDS011;27753;55.724;37.612;2022-09-12T01:06:29;15.15;;;10.50;;
42094;SDS011;27753;55.724;37.612;2022-09-12T01:09:00;13.77;;;10.18;;
42094;SDS011;27753;55.724;37.612;2022-09-12T01:11:29;14.68;;;10.38;;
42094;SDS011;27753;55.724;37.612;2022-09-12T01:13:59;14.82;;;9.20;;
42094;SDS011;27753;55.724;37.612;2022-09-12T01:16:25;14.70;;;9.80;;
42094;SDS011;27753;55.724;37.612;2022-09-12T01:24:49;12.15;;;8.40;;
42094;SDS011;27753;55.724;37.612;2022-09-12T01:32:54;9.85;;;7.95;;
42094;SDS011;27753;55.724;37.612;2022-09-12T01:38:35;12.52;;;8.63;;
42094;SDS011;27753;55.724;37.612;2022-09-12T01:41:16;12.18;;;8.85;;
42094;SDS011;27753;55.724;37.612;2022-09-12T01:43:52;11.85;;;8.75;;
42094;SDS011;27753;55.724;37.612;2022-09-12T01:51:38;11.40;;;8.65;;
42094;SDS011;27753;55.724;37.612;2022-09-12T01:54:09;12.70;;;8.60;;
42094;SDS011;27753;55.724;37.612;2022-09-12T01:56:44;10.90;;;7.93;;
42094;SDS011;27753;55.724;37.612;2022-09-12T01:59:23;9.90;;;8.10;;
42094;SDS011;27753;55.724;37.612;2022-09-12T02:02:11;11.65;;;8.00;;
42094;SDS011;27753;55.724;37.612;2022-09-12T02:04:54;11.57;;;8.05;;
42094;SDS011;27753;55.724;37.612;2022-09-12T02:09:58;12.57;;;8.13;;
42094;SDS011;27753;55.724;37.612;2022-09-12T02:12:42;9.20;;;7.40;;
42094;SDS011;27753;55.724;37.612;2022-09-12T02:15:12;11.90;;;8.05;;
42094;SDS011;27753;55.724;37.612;2022-09-12T02:17:41;8.85;;;7.55;;
42094;SDS011;27753;55.724;37.612;2022-09-12T02:20:19;11.00;;;8.15;;
42094;SDS011;27753;55.724;37.612;2022-09-12T02:22:50;11.55;;;8.82;;
42094;SDS011;27753;55.724;37.612;2022-09-12T02:25:19;13.48;;;8.35;;
42094;SDS011;27753;55.724;37.612;2022-09-12T02:30:19;17.88;;;8.80;;
42094;SDS011;27753;55.724;37.612;2022-09-12T02:35:57;15.52;;;11.65;;
42094;SDS011;27753;55.724;37.612;2022-09-12T02:41:00;19.20;;;12.25;;
42094;SDS011;27753;55.724;37.612;2022-09-12T02:43:26;16.30;;;11.40;;
42094;SDS011;27753;55.724;37.612;2022-09-12T02:45:52;15.07;;;11.50;;
42094;SDS011;27753;55.724;37.612;2022-09-12T02:48:22;20.17;;;11.30;;
42094;SDS011;27753;55.724;37.612;2022-09-12T02:50:53;16.90;;;11.30;;
42094;SDS011;27753;55.724;37.612;2022-09-12T02:53:19;16.70;;;12.73;;
42094;SDS011;27753;55.724;37.612;2022-09-12T02:55:45;18.80;;;12.02;;
42094;SDS011;27753;55.724;37.612;2022-09-12T02:58:15;14.68;;;9.98;;
42094;SDS011;27753;55.724;37.612;2022-09-12T03:01:19;14.77;;;10.55;;
42094;SDS011;27753;55.724;37.612;2022-09-12T03:20:14;19.92;;;13.85;;
42094;SDS011;27753;55.724;37.612;2022-09-12T03:22:55;19.55;;;12.52;;
42094;SDS011;27753;55.724;37.612;2022-09-12T03:25:47;14.65;;;12.77;;
42094;SDS011;27753;55.724;37.612;2022-09-12T03:28:18;18.42;;;13.63;;
42094;SDS011;27753;55.724;37.612;2022-09-12T03:30:46;21.90;;;14.07;;
42094;SDS011;27753;55.724;37.612;2022-09-12T03:33:14;19.60;;;14.50;;
42094;SDS011;27753;55.724;37.612;2022-09-12T03:35:50;19.20;;;12.65;;
42094;SDS011;27753;55.724;37.612;2022-09-12T03:38:17;18.27;;;12.40;;
42094;SDS011;27753;55.724;37.612;2022-09-12T03:40:43;20.02;;;13.35;;
42094;SDS011;27753;55.724;37.612;2022-09-12T03:43:10;15.40;;;12.53;;
42094;SDS011;27753;55.724;37.612;2022-09-12T03:45:36;18.05;;;13.05;;
42094;SDS011;27753;55.724;37.612;2022-09-12T03:48:03;21.27;;;12.57;;
42094;SDS011;27753;55.724;37.612;2022-09-12T03:50:30;22.98;;;15.43;;
42094;SDS011;27753;55.724;37.612;2022-09-12T03:52:59;19.80;;;12.35;;
42094;SDS011;27753;55.724;37.612;2022-09-12T03:55:25;18.70;;;12.38;;
42094;SDS011;27753;55.724;37.612;2022-09-12T03:57:52;21.88;;;13.82;;
42094;SDS011;27753;55.724;37.612;2022-09-12T04:00:18;20.13;;;13.70;;
42094;SDS011;27753;55.724;37.612;2022-09-12T04:02:44;17.95;;;13.65;;
42094;SDS011;27753;55.724;37.612;2022-09-12T04:05:10;20.67;;;14.50;;
42094;SDS011;27753;55.724;37.612;2022-09-12T04:07:36;24.27;;;13.75;;
42094;SDS011;27753;55.724;37.612;2022-09-12T04:10:02;17.73;;;13.13;;
42094;SDS011;27753;55.724;37.612;2022-09-12T04:12:28;16.87;;;13.53;;
42094;SDS011;27753;55.724;37.612;2022-09-12T04:14:54;18.88;;;14.15;;
42094;SDS011;27753;55.724;37.612;2022-09-12T04:17:20;17.52;;;12.95;;
42094;SDS011;27753;55.724;37.612;2022-09-12T04:19:46;21.65;;;14.23;;
42094;SDS011;27753;55.724;37.612;2022-09-12T04:22:15;16.55;;;14.30;;
42094;SDS011;27753;55.724;37.612;2022-09-12T04:24:40;18.83;;;14.25;;
42094;SDS011;27753;55.724;37.612;2022-09-12T04:27:06;19.05;;;13.52;;
42094;SDS011;27753;55.724;37.612;2022-09-12T04:29:32;21.48;;;13.13;;
42094;SDS011;27753;55.724;37.612;2022-09-12T04:31:59;19.85;;;13.93;;
42094;SDS011;27753;55.724;37.612;2022-09-12T04:34:25;17.40;;;12.93;;
42094;SDS011;27753;55.724;37.612;2022-09-12T04:36:54;18.52;;;11.98;;
42094;SDS011;27753;55.724;37.612;2022-09-12T04:39:19;16.15;;;13.13;;
42094;SDS011;27753;55.724;37.612;2022-09-12T04:41:45;15.98;;;12.15;;
42094;SDS011;27753;55.724;37.612;2022-09-12T04:44:12;18.88;;;12.95;;
42094;SDS011;27753;55.724;37.612;2022-09-12T04:46:40;17.40;;;13.55;;
42094;SDS011;27753;55.724;37.612;2022-09-12T04:49:10;18.00;;;13.57;;
42094;SDS011;27753;55.724;37.612;2022-09-12T04:51:36;16.52;;;12.85;;
42094;SDS011;27753;55.724;37.612;2022-09-12T04:54:09;14.02;;;12.15;;
42094;SDS011;27753;55.724;37.612;2022-09-12T04:56:38;15.65;;;12.05;;
42094;SDS011;27753;55.724;37.612;2022-09-12T04:59:05;16.83;;;12.70;;
42094;SDS011;27753;55.724;37.612;2022-09-12T05:01:33;18.85;;;12.85;;
42094;SDS011;27753;55.724;37.612;2022-09-12T05:04:00;21.15;;;13.52;;
42094;SDS011;27753;55.724;37.612;2022-09-12T05:06:33;19.48;;;13.88;;
42094;SDS011;27753;55.724;37.612;2022-09-12T05:09:02;15.43;;;12.05;;
42094;SDS011;27753;55.724;37.612;2022-09-12T05:11:31;19.70;;;13.70;;
42094;SDS011;27753;55.724;37.612;2022-09-12T05:13:58;20.00;;;13.27;;
42094;SDS011;27753;55.724;37.612;2022-09-12T05:16:25;13.55;;;11.35;;
42094;SDS011;27753;55.724;37.612;2022-09-12T05:18:52;16.17;;;11.85;;
42094;SDS011;27753;55.724;37.612;2022-09-12T05:21:20;20.60;;;14.02;;
42094;SDS011;27753;55.724;37.612;2022-09-12T05:23:53;16.90;;;11.85;;
42094;SDS011;27753;55.724;37.612;2022-09-12T05:26:21;19.05;;;11.80;;
42094;SDS011;27753;55.724;37.612;2022-09-12T05:28:48;19.42;;;13.18;;
42094;SDS011;27753;55.724;37.612;2022-09-12T05:31:16;14.55;;;11.27;;
42094;SDS011;27753;55.724;37.612;2022-09-12T05:33:44;16.48;;;11.32;;
42094;SDS011;27753;55.724;37.612;2022-09-12T05:36:16;14.00;;;11.50;;
42094;SDS011;27753;55.724;37.612;2022-09-12T05:38:43;14.13;;;11.80;;
42094;SDS011;27753;55.724;37.612;2022-09-12T05:41:17;13.83;;;11.43;;
42094;SDS011;27753;55.724;37.612;2022-09-12T05:43:45;18.67;;;11.18;;
42094;SDS011;27753;55.724;37.612;2022-09-12T05:46:12;14.35;;;11.25;;
42094;SDS011;27753;55.724;37.612;2022-09-12T05:48:41;13.00;;;10.23;;
42094;SDS011;27753;55.724;37.612;2022-09-12T05:53:37;12.52;;;10.50;;
42094;SDS011;27753;55.724;37.612;2022-09-12T05:56:10;14.50;;;11.52;;
42094;SDS011;27753;55.724;37.612;2022-09-12T05:58:39;19.75;;;12.07;;
42094;SDS011;27753;55.724;37.612;2022-09-12T06:01:07;16.88;;;12.50;;
42094;SDS011;27753;55.724;37.612;2022-09-12T06:03:45;18.20;;;12.23;;
42094;SDS011;27753;55.724;37.612;2022-09-12T06:06:13;15.45;;;11.10;;
42094;SDS011;27753;55.724;37.612;2022-09-12T06:11:07;12.57;;;11.07;;
42094;SDS011;27753;55.724;37.612;2022-09-12T06:13:36;18.45;;;10.55;;
42094;SDS011;27753;55.724;37.612;2022-09-12T06:16:07;12.90;;;11.00;;
42094;SDS011;27753;55.724;37.612;2022-09-12T06:18:45;16.65;;;10.30;;
42094;SDS011;27753;55.724;37.612;2022-09-12T06:21:12;14.07;;;11.55;;
42094;SDS011;27753;55.724;37.612;2022-09-12T06:23:38;13.35;;;9.82;;
42094;SDS011;27753;55.724;37.612;2022-09-12T06:26:06;15.40;;;11.38;;
42094;SDS011;27753;55.724;37.612;2022-09-12T06:33:33;13.15;;;10.75;;
42094;SDS011;27753;55.724;37.612;2022-09-12T06:36:03;15.80;;;9.25;;
42094;SDS011;27753;55.724;37.612;2022-09-12T06:38:31;14.68;;;10.80;;
42094;SDS011;27753;55.724;37.612;2022-09-12T06:40:57;15.10;;;10.43;;
42094;SDS011;27753;55.724;37.612;2022-09-12T06:43:24;14.30;;;10.32;;
42094;SDS011;27753;55.724;37.612;2022-09-12T06:45:50;21.98;;;10.23;;
42094;SDS011;27753;55.724;37.612;2022-09-12T06:48:17;13.80;;;9.50;;
42094;SDS011;27753;55.724;37.612;2022-09-12T06:50:43;12.82;;;9.20;;
42094;SDS011;27753;55.724;37.612;2022-09-12T06:53:26;17.25;;;9.57;;
42094;SDS011;27753;55.724;37.612;2022-09-12T06:55:57;16.05;;;9.88;;
42094;SDS011;27753;55.724;37.612;2022-09-12T06:58:25;12.98;;;9.80;;
42094;SDS011;27753;55.724;37.612;2022-09-12T07:00:59;22.23;;;13.93;;
42094;SDS011;27753;55.724;37.612;2022-09-12T07:03:30;16.13;;;11.20;;
42094;SDS011;27753;55.724;37.612;2022-09-12T07:05:57;11.15;;;8.13;;
42094;SDS011;27753;55.724;37.612;2022-09-12T07:08:26;11.80;;;8.50;;
42094;SDS011;27753;55.724;37.612;2022-09-12T07:10:54;18.20;;;9.45;;
42094;SDS011;27753;55.724;37.612;2022-09-12T07:13:21;16.00;;;9.27;;
42094;SDS011;27753;55.724;37.612;2022-09-12T07:15:47;8.90;;;8.00;;
42094;SDS011;27753;55.724;37.612;2022-09-12T07:18:13;11.32;;;9.10;;
42094;SDS011;27753;55.724;37.612;2022-09-12T07:20:39;17.67;;;8.82;;
42094;SDS011;27753;55.724;37.612;2022-09-12T07:23:05;12.98;;;8.90;;
42094;SDS011;27753;55.724;37.612;2022-09-12T07:25:31;16.05;;;8.88;;
42094;SDS011;27753;55.724;37.612;2022-09-12T07:27:58;13.52;;;10.48;;
42094;SDS011;27753;55.724;37.612;2022-09-12T07:30:24;15.82;;;8.85;;
42094;SDS011;27753;55.724;37.612;2022-09-12T07:32:53;13.90;;;8.73;;
42094;SDS011;27753;55.724;37.612;2022-09-12T07:35:22;14.52;;;9.05;;
42094;SDS011;27753;55.724;37.612;2022-09-12T07:37:48;11.15;;;7.25;;
42094;SDS011;27753;55.724;37.612;2022-09-12T07:40:14;10.38;;;7.65;;
42094;SDS011;27753;55.724;37.612;2022-09-12T07:42:40;15.77;;;8.95;;
42094;SDS011;27753;55.724;37.612;2022-09-12T07:45:08;8.93;;;8.05;;
42094;SDS011;27753;55.724;37.612;2022-09-12T07:47:35;17.70;;;9.10;;
42094;SDS011;27753;55.724;37.612;2022-09-12T07:50:04;14.13;;;8.10;;
42094;SDS011;27753;55.724;37.612;2022-09-12T07:52:32;14.85;;;8.27;;
42094;SDS011;27753;55.724;37.612;2022-09-12T07:54:58;16.63;;;7.90;;
42094;SDS011;27753;55.724;37.612;2022-09-12T07:57:24;15.98;;;7.40;;
42094;SDS011;27753;55.724;37.612;2022-09-12T07:59:50;14.45;;;6.63;;
42094;SDS011;27753;55.724;37.612;2022-09-12T08:02:16;9.70;;;7.00;;
42094;SDS011;27753;55.724;37.612;2022-09-12T08:04:42;14.45;;;7.65;;
42094;SDS011;27753;55.724;37.612;2022-09-12T08:07:08;11.98;;;7.03;;
42094;SDS011;27753;55.724;37.612;2022-09-12T08:09:34;15.38;;;6.95;;
42094;SDS011;27753;55.724;37.612;2022-09-12T08:12:02;10.27;;;6.38;;
42094;SDS011;27753;55.724;37.612;2022-09-12T08:14:28;21.00;;;7.88;;
42094;SDS011;27753;55.724;37.612;2022-09-12T08:16:54;13.38;;;7.88;;
42094;SDS011;27753;55.724;37.612;2022-09-12T08:19:20;14.15;;;7.57;;
42094;SDS011;27753;55.724;37.612;2022-09-12T08:21:46;13.20;;;7.68;;
42094;SDS011;27753;55.724;37.612;2022-09-12T08:24:30;12.40;;;8.32;;
42094;SDS011;27753;55.724;37.612;2022-09-12T08:26:59;14.80;;;7.85;;
42094;SDS011;27753;55.724;37.612;2022-09-12T08:29:25;16.63;;;8.93;;
42094;SDS011;27753;55.724;37.612;2022-09-12T08:31:51;12.25;;;7.80;;
42094;SDS011;27753;55.724;37.612;2022-09-12T08:34:17;17.33;;;8.88;;
42094;SDS011;27753;55.724;37.612;2022-09-12T08:36:43;13.68;;;8.73;;
42094;SDS011;27753;55.724;37.612;2022-09-12T08:39:12;12.55;;;8.27;;
42094;SDS011;27753;55.724;37.612;2022-09-12T08:41:45;16.15;;;9.52;;
42094;SDS011;27753;55.724;37.612;2022-09-12T08:49:50;12.98;;;9.57;;
42094;SDS011;27753;55.724;37.612;2022-09-12T08:52:19;13.70;;;10.45;;
42094;SDS011;27753;55.724;37.612;2022-09-12T08:54:58;12.75;;;10.00;;
42094;SDS011;27753;55.724;37.612;2022-09-12T08:57:26;13.18;;;10.93;;
42094;SDS011;27753;55.724;37.612;2022-09-12T08:59:52;13.00;;;9.82;;
42094;SDS011;27753;55.724;37.612;2022-09-12T09:05:16;17.77;;;10.57;;
42094;SDS011;27753;55.724;37.612;2022-09-12T09:20:04;15.80;;;11.32;;
42094;SDS011;27753;55.724;37.612;2022-09-12T09:22:06;17.17;;;11.13;;
42094;SDS011;27753;55.724;37.612;2022-09-12T09:24:40;15.68;;;12.27;;
42094;SDS011;27753;55.724;37.612;2022-09-12T09:30:11;17.33;;;12.40;;
42094;SDS011;27753;55.724;37.612;2022-09-12T09:32:40;14.65;;;12.70;;
42094;SDS011;27753;55.724;37.612;2022-09-12T09:35:15;16.67;;;12.82;;
42094;SDS011;27753;55.724;37.612;2022-09-12T09:41:16;21.27;;;13.55;;
42094;SDS011;27753;55.724;37.612;2022-09-12T09:44:03;15.80;;;12.38;;
42094;SDS011;27753;55.724;37.612;2022-09-12T09:46:29;20.48;;;13.43;;
42094;SDS011;27753;55.724;37.612;2022-09-12T09:51:28;17.08;;;13.43;;
42094;SDS011;27753;55.724;37.612;2022-09-12T09:56:50;21.38;;;14.40;;
42094;SDS011;27753;55.724;37.612;2022-09-12T09:59:18;23.00;;;15.85;;
42094;SDS011;27753;55.724;37.612;2022-09-12T10:04:58;21.88;;;15.93;;
42094;SDS011;27753;55.724;37.612;2022-09-12T10:07:24;21.77;;;17.15;;
42094;SDS011;27753;55.724;37.612;2022-09-12T10:10:36;21.65;;;15.68;;
42094;SDS011;27753;55.724;37.612;2022-09-12T10:12:46;24.80;;;17.17;;
42094;SDS011;27753;55.724;37.612;2022-09-12T10:15:20;23.67;;;15.77;;
42094;SDS011;27753;55.724;37.612;2022-09-12T10:17:50;27.02;;;17.20;;
42094;SDS011;27753;55.724;37.612;2022-09-12T10:20:38;29.00;;;19.27;;
42094;SDS011;27753;55.724;37.612;2022-09-12T10:25:53;27.73;;;17.70;;
42094;SDS011;27753;55.724;37.612;2022-09-12T10:28:22;26.08;;;17.95;;
42094;SDS011;27753;55.724;37.612;2022-09-12T10:33:57;30.67;;;18.30;;
42094;SDS011;27753;55.724;37.612;2022-09-12T10:36:25;28.52;;;18.40;;
42094;SDS011;27753;55.724;37.612;2022-09-12T10:39:03;23.25;;;18.20;;
42094;SDS011;27753;55.724;37.612;2022-09-12T10:41:37;26.92;;;18.83;;
42094;SDS011;27753;55.724;37.612;2022-09-12T10:44:15;28.73;;;19.38;;
42094;SDS011;27753;55.724;37.612;2022-09-12T10:46:43;28.08;;;18.85;;
42094;SDS011;27753;55.724;37.612;2022-09-12T10:49:20;27.80;;;18.52;;
42094;SDS011;27753;55.724;37.612;2022-09-12T10:51:48;28.63;;;18.95;;
42094;SDS011;27753;55.724;37.612;2022-09-12T10:54:16;24.23;;;17.17;;
42094;SDS011;27753;55.724;37.612;2022-09-12T11:02:37;27.48;;;18.15;;
42094;SDS011;27753;55.724;37.612;2022-09-12T11:05:17;23.45;;;18.13;;
42094;SDS011;27753;55.724;37.612;2022-09-12T11:07:54;30.52;;;18.80;;
42094;SDS011;27753;55.724;37.612;2022-09-12T11:10:30;27.65;;;18.33;;
42094;SDS011;27753;55.724;37.612;2022-09-12T11:13:16;23.35;;;17.30;;
42094;SDS011;27753;55.724;37.612;2022-09-12T11:18:52;26.50;;;17.13;;
42094;SDS011;27753;55.724;37.612;2022-09-12T11:27:14;26.58;;;17.83;;
42094;SDS011;27753;55.724;37.612;2022-09-12T11:29:57;25.98;;;18.20;;
42094;SDS011;27753;55.724;37.612;2022-09-12T11:40:36;22.67;;;16.17;;
42094;SDS011;27753;55.724;37.612;2022-09-12T11:43:09;26.27;;;17.70;;
42094;SDS011;27753;55.724;37.612;2022-09-12T11:45:49;25.70;;;18.42;;
42094;SDS011;27753;55.724;37.612;2022-09-12T11:50:59;26.10;;;19.13;;
42094;SDS011;27753;55.724;37.612;2022-09-12T11:53:30;24.73;;;18.08;;
42094;SDS011;27753;55.724;37.612;2022-09-12T11:56:13;29.45;;;17.17;;
42094;SDS011;27753;55.724;37.612;2022-09-12T11:58:54;29.63;;;17.88;;
42094;SDS011;27753;55.724;37.612;2022-09-12T12:01:29;28.98;;;17.35;;
42094;SDS011;27753;55.724;37.612;2022-09-12T12:04:05;33.13;;;18.48;;
42094;SDS011;27753;55.724;37.612;2022-09-12T12:06:39;24.63;;;17.10;;
42094;SDS011;27753;55.724;37.612;2022-09-12T12:09:28;28.17;;;18.80;;
42094;SDS011;27753;55.724;37.612;2022-09-12T12:11:55;27.50;;;18.52;;
42094;SDS011;27753;55.724;37.612;2022-09-12T12:17:02;31.27;;;17.60;;
42094;SDS011;27753;55.724;37.612;2022-09-12T12:22:07;30.80;;;18.33;;
42094;SDS011;27753;55.724;37.612;2022-09-12T12:28:02;25.30;;;18.27;;
42094;SDS011;27753;55.724;37.612;2022-09-12T12:38:02;20.40;;;15.52;;
42094;SDS011;27753;55.724;37.612;2022-09-12T12:40:30;23.38;;;16.27;;
42094;SDS011;27753;55.724;37.612;2022-09-12T12:42:58;24.30;;;16.15;;
42094;SDS011;27753;55.724;37.612;2022-09-12T12:47:54;29.27;;;16.55;;
42094;SDS011;27753;55.724;37.612;2022-09-12T12:50:26;28.55;;;15.65;;
42094;SDS011;27753;55.724;37.612;2022-09-12T12:52:58;28.60;;;15.43;;
42094;SDS011;27753;55.724;37.612;2022-09-12T12:55:45;19.92;;;14.35;;
42094;SDS011;27753;55.724;37.612;2022-09-12T12:58:34;24.98;;;15.25;;
42094;SDS011;27753;55.724;37.612;2022-09-12T13:01:24;23.95;;;15.15;;
42094;SDS011;27753;55.724;37.612;2022-09-12T13:03:58;23.67;;;13.25;;
42094;SDS011;27753;55.724;37.612;2022-09-12T13:11:54;21.35;;;12.77;;
42094;SDS011;27753;55.724;37.612;2022-09-12T13:17:13;16.85;;;12.50;;
42094;SDS011;27753;55.724;37.612;2022-09-12T13:20:06;18.13;;;12.65;;
42094;SDS011;27753;55.724;37.612;2022-09-12T13:22:52;21.50;;;13.00;;
42094;SDS011;27753;55.724;37.612;2022-09-12T13:25:32;20.80;;;11.73;;
42094;SDS011;27753;55.724;37.612;2022-09-12T13:30:46;15.65;;;10.35;;
42094;SDS011;27753;55.724;37.612;2022-09-12T13:36:23;16.38;;;10.25;;
42094;SDS011;27753;55.724;37.612;2022-09-12T13:42:03;12.35;;;9.63;;
42094;SDS011;27753;55.724;37.612;2022-09-12T13:47:34;16.75;;;9.10;;
42094;SDS011;27753;55.724;37.612;2022-09-12T13:50:04;14.38;;;8.75;;
42094;SDS011;27753;55.724;37.612;2022-09-12T13:52:33;12.25;;;8.77;;
42094;SDS011;27753;55.724;37.612;2022-09-12T13:55:04;11.13;;;8.50;;
42094;SDS011;27753;55.724;37.612;2022-09-12T13:57:38;12.07;;;9.05;;
42094;SDS011;27753;55.724;37.612;2022-09-12T14:00:15;11.70;;;9.05;;
42094;SDS011;27753;55.724;37.612;2022-09-12T14:02:46;12.32;;;8.80;;
42094;SDS011;27753;55.724;37.612;2022-09-12T14:05:17;12.13;;;8.48;;
42094;SDS011;27753;55.724;37.612;2022-09-12T14:07:59;17.65;;;7.90;;
42094;SDS011;27753;55.724;37.612;2022-09-12T14:10:32;13.40;;;7.72;;
42094;SDS011;27753;55.724;37.612;2022-09-12T14:13:02;10.32;;;7.50;;
42094;SDS011;27753;55.724;37.612;2022-09-12T14:15:32;13.13;;;8.23;;
42094;SDS011;27753;55.724;37.612;2022-09-12T14:18:01;10.73;;;7.07;;
42094;SDS011;27753;55.724;37.612;2022-09-12T14:20:29;13.48;;;8.68;;
42094;SDS011;27753;55.724;37.612;2022-09-12T14:23:00;13.05;;;7.40;;
42094;SDS011;27753;55.724;37.612;2022-09-12T14:25:28;10.65;;;7.05;;
42094;SDS011;27753;55.724;37.612;2022-09-12T14:28:01;14.77;;;7.15;;
42094;SDS011;27753;55.724;37.612;2022-09-12T14:30:30;15.80;;;7.70;;
42094;SDS011;27753;55.724;37.612;2022-09-12T14:35:30;9.90;;;6.22;;
42094;SDS011;27753;55.724;37.612;2022-09-12T14:38:06;9.63;;;5.45;;
42094;SDS011;27753;55.724;37.612;2022-09-12T14:40:50;8.68;;;6.07;;
42094;SDS011;27753;55.724;37.612;2022-09-12T14:46:03;12.23;;;5.75;;
42094;SDS011;27753;55.724;37.612;2022-09-12T14:48:36;10.10;;;5.55;;
42094;SDS011;27753;55.724;37.612;2022-09-12T14:51:31;9.98;;;6.00;;
42094;SDS011;27753;55.724;37.612;2022-09-12T14:56:58;7.55;;;5.90;;
42094;SDS011;27753;55.724;37.612;2022-09-12T14:59:26;8.85;;;5.95;;
42094;SDS011;27753;55.724;37.612;2022-09-12T15:04:49;6.38;;;5.05;;
42094;SDS011;27753;55.724;37.612;2022-09-12T15:07:34;14.48;;;6.57;;
42094;SDS011;27753;55.724;37.612;2022-09-12T15:10:03;10.55;;;5.70;;
42094;SDS011;27753;55.724;37.612;2022-09-12T15:15:28;8.43;;;5.72;;
42094;SDS011;27753;55.724;37.612;2022-09-12T15:17:54;11.00;;;6.38;;
42094;SDS011;27753;55.724;37.612;2022-09-12T15:20:20;8.65;;;6.07;;
42094;SDS011;27753;55.724;37.612;2022-09-12T15:22:47;7.30;;;5.57;;
42094;SDS011;27753;55.724;37.612;2022-09-12T15:25:13;8.77;;;5.75;;
42094;SDS011;27753;55.724;37.612;2022-09-12T15:27:39;7.07;;;5.28;;
42094;SDS011;27753;55.724;37.612;2022-09-12T15:30:06;7.65;;;5.55;;
42094;SDS011;27753;55.724;37.612;2022-09-12T15:32:33;7.47;;;4.88;;
42094;SDS011;27753;55.724;37.612;2022-09-12T15:35:00;12.77;;;4.65;;
42094;SDS011;27753;55.724;37.612;2022-09-12T15:37:26;10.48;;;4.53;;
42094;SDS011;27753;55.724;37.612;2022-09-12T15:39:52;6.32;;;4.88;;
42094;SDS011;27753;55.724;37.612;2022-09-12T15:42:22;9.82;;;5.28;;
42094;SDS011;27753;55.724;37.612;2022-09-12T15:44:52;9.02;;;5.72;;
42094;SDS011;27753;55.724;37.612;2022-09-12T15:47:18;7.30;;;5.53;;
42094;SDS011;27753;55.724;37.612;2022-09-12T15:49:44;10.70;;;6.03;;
42094;SDS011;27753;55.724;37.612;2022-09-12T15:52:13;9.45;;;5.10;;
42094;SDS011;27753;55.724;37.612;2022-09-12T15:54:40;9.48;;;5.90;;
42094;SDS011;27753;55.724;37.612;2022-09-12T15:57:07;12.63;;;5.53;;
42094;SDS011;27753;55.724;37.612;2022-09-12T15:59:34;12.48;;;5.57;;
42094;SDS011;27753;55.724;37.612;2022-09-12T16:02:02;10.57;;;5.03;;
42094;SDS011;27753;55.724;37.612;2022-09-12T16:04:29;9.50;;;4.55;;
42094;SDS011;27753;55.724;37.612;2022-09-12T16:06:55;12.73;;;6.18;;
42094;SDS011;27753;55.724;37.612;2022-09-12T16:09:21;13.13;;;5.57;;
42094;SDS011;27753;55.724;37.612;2022-09-12T16:11:48;11.80;;;6.07;;
42094;SDS011;27753;55.724;37.612;2022-09-12T16:14:15;12.10;;;6.40;;
42094;SDS011;27753;55.724;37.612;2022-09-12T16:19:08;11.77;;;6.18;;
42094;SDS011;27753;55.724;37.612;2022-09-12T16:21:36;12.68;;;7.80;;
42094;SDS011;27753;55.724;37.612;2022-09-12T16:24:03;17.67;;;8.68;;
42094;SDS011;27753;55.724;37.612;2022-09-12T16:26:29;12.50;;;7.82;;
42094;SDS011;27753;55.724;37.612;2022-09-12T16:28:57;15.07;;;9.40;;
42094;SDS011;27753;55.724;37.612;2022-09-12T16:31:23;12.47;;;8.80;;
42094;SDS011;27753;55.724;37.612;2022-09-12T16:33:50;16.80;;;9.00;;
42094;SDS011;27753;55.724;37.612;2022-09-12T16:36:18;12.23;;;8.57;;
42094;SDS011;27753;55.724;37.612;2022-09-12T16:38:45;12.70;;;8.50;;
42094;SDS011;27753;55.724;37.612;2022-09-12T16:41:13;10.32;;;7.50;;
42094;SDS011;27753;55.724;37.612;2022-09-12T16:43:40;11.30;;;8.63;;
42094;SDS011;27753;55.724;37.612;2022-09-12T16:46:08;9.73;;;7.70;;
42094;SDS011;27753;55.724;37.612;2022-09-12T16:48:46;11.60;;;7.85;;
42094;SDS011;27753;55.724;37.612;2022-09-12T16:51:14;12.13;;;8.00;;
42094;SDS011;27753;55.724;37.612;2022-09-12T16:53:41;14.82;;;8.52;;
42094;SDS011;27753;55.724;37.612;2022-09-12T16:56:07;12.65;;;7.75;;
42094;SDS011;27753;55.724;37.612;2022-09-12T16:58:35;8.60;;;6.80;;
42094;SDS011;27753;55.724;37.612;2022-09-12T17:01:03;13.20;;;6.97;;
42094;SDS011;27753;55.724;37.612;2022-09-12T17:03:39;11.30;;;6.85;;
42094;SDS011;27753;55.724;37.612;2022-09-12T17:06:16;16.00;;;7.97;;
42094;SDS011;27753;55.724;37.612;2022-09-12T17:08:43;12.93;;;6.95;;
42094;SDS011;27753;55.724;37.612;2022-09-12T17:11:12;11.00;;;7.07;;
42094;SDS011;27753;55.724;37.612;2022-09-12T17:13:41;9.40;;;7.63;;
42094;SDS011;27753;55.724;37.612;2022-09-12T17:16:14;12.02;;;6.10;;
42094;SDS011;27753;55.724;37.612;2022-09-12T17:18:40;7.53;;;6.20;;
42094;SDS011;27753;55.724;37.612;2022-09-12T17:21:06;12.90;;;7.38;;
42094;SDS011;27753;55.724;37.612;2022-09-12T17:23:33;8.05;;;6.60;;
42094;SDS011;27753;55.724;37.612;2022-09-12T17:26:00;9.32;;;6.20;;
42094;SDS011;27753;55.724;37.612;2022-09-12T17:28:26;8.45;;;5.88;;
42094;SDS011;27753;55.724;37.612;2022-09-12T17:30:56;8.65;;;6.97;;
42094;SDS011;27753;55.724;37.612;2022-09-12T17:33:24;10.25;;;7.05;;
42094;SDS011;27753;55.724;37.612;2022-09-12T17:35:50;9.13;;;7.07;;
42094;SDS011;27753;55.724;37.612;2022-09-12T17:38:16;9.02;;;6.25;;